Time;durP1;ratioP1;P1;durP2;ratioP2;P2;SDS_P1;SDS_P2;PMS_P1;PMS_P2;Temp;Humidity;BMP_temperature;BMP_pressure;BME280_temperature;BME280_humidity;BME280_pressure;Samples;Min_cycle;Max_cycle;Signal;HPM_P1;HPM_P2
2020/12/05 00:01:07;;;;;;;17.13;7.03;;;2.80;99.90;;;;;;5098418;28;20095;-67
2020/12/05 00:03:35;;;;;;;14.27;7.32;;;2.80;99.90;;;;;;5098412;28;20026;-68
2020/12/05 00:06:02;;;;;;;17.48;7.13;;;2.80;99.90;;;;;;5097331;28;20408;-67
2020/12/05 00:08:32;;;;;;;14.75;7.25;;;2.80;99.90;;;;;;5077945;28;20032;-67
2020/12/05 00:11:00;;;;;;;15.80;7.72;;;2.70;99.90;;;;;;5078478;28;20020;-67
2020/12/05 00:13:29;;;;;;;12.02;6.43;;;2.70;99.90;;;;;;5078196;28;20052;-67
2020/12/05 00:15:57;;;;;;;15.90;6.82;;;2.70;99.90;;;;;;5078419;28;20081;-67
2020/12/05 00:18:25;;;;;;;15.45;6.55;;;2.60;99.90;;;;;;5078072;28;20051;-67
2020/12/05 00:20:53;;;;;;;14.43;6.80;;;2.60;99.90;;;;;;5059931;28;20153;-67
2020/12/05 00:23:21;;;;;;;19.02;7.95;;;2.50;99.90;;;;;;5077673;28;20493;-67
2020/12/05 00:25:49;;;;;;;20.45;8.63;;;2.50;99.90;;;;;;5077566;28;20039;-67
2020/12/05 00:28:17;;;;;;;14.60;7.95;;;2.50;99.90;;;;;;5060318;28;20062;-67
2020/12/05 00:30:45;;;;;;;14.45;6.75;;;2.50;99.90;;;;;;5059783;28;20029;-67
2020/12/05 00:33:13;;;;;;;19.98;7.47;;;2.60;99.90;;;;;;5077468;28;20025;-67
2020/12/05 00:35:41;;;;;;;12.50;7.15;;;2.50;99.90;;;;;;5077391;28;20067;-67
2020/12/05 00:38:08;;;;;;;17.77;7.20;;;2.50;99.90;;;;;;5077364;28;20029;-67
2020/12/05 00:40:36;;;;;;;13.70;6.63;;;2.50;99.90;;;;;;5059641;28;20027;-67
2020/12/05 00:43:03;;;;;;;17.27;8.25;;;2.60;99.90;;;;;;5059576;28;20025;-67
2020/12/05 00:45:31;;;;;;;15.88;7.30;;;2.60;99.90;;;;;;5059496;28;20022;-67
2020/12/05 00:47:59;;;;;;;15.30;6.97;;;2.60;99.90;;;;;;5077160;28;20020;-67
2020/12/05 00:50:27;;;;;;;17.95;7.43;;;2.60;99.90;;;;;;5077673;28;20020;-67
2020/12/05 00:52:55;;;;;;;15.20;6.68;;;2.60;99.90;;;;;;5077089;28;20023;-67
2020/12/05 00:55:23;;;;;;;18.17;7.85;;;2.50;99.90;;;;;;5059232;28;20028;-67
2020/12/05 00:57:51;;;;;;;12.07;5.88;;;2.50;99.90;;;;;;5077267;28;20155;-67
2020/12/05 01:00:19;;;;;;;13.15;6.07;;;2.50;99.90;;;;;;5059235;28;20056;-68
2020/12/05 01:02:50;;;;;;;12.32;6.47;;;2.50;99.90;;;;;;5076964;28;20056;-67
2020/12/05 01:05:18;;;;;;;15.25;7.07;;;2.50;99.90;;;;;;5076844;28;20017;-67
2020/12/05 01:07:45;;;;;;;11.98;6.32;;;2.50;99.90;;;;;;5083630;28;20459;-67
2020/12/05 01:10:13;;;;;;;16.80;7.13;;;2.40;99.90;;;;;;5097372;28;20028;-67
2020/12/05 01:12:41;;;;;;;14.25;6.90;;;2.40;99.90;;;;;;5097128;28;20316;-67
2020/12/05 01:15:08;;;;;;;15.20;7.38;;;2.30;99.90;;;;;;5097588;28;20027;-68
2020/12/05 01:17:39;;;;;;;13.60;6.68;;;2.30;99.90;;;;;;5096321;28;20024;-67
2020/12/05 01:20:08;;;;;;;15.20;7.88;;;2.40;99.90;;;;;;5097476;28;20477;-67
2020/12/05 01:22:36;;;;;;;14.43;6.68;;;2.40;99.90;;;;;;5096018;28;20112;-67
2020/12/05 01:25:04;;;;;;;15.10;7.00;;;2.30;99.90;;;;;;5095890;28;20027;-68
2020/12/05 01:27:32;;;;;;;13.38;7.32;;;2.40;99.90;;;;;;5096888;28;20024;-68
2020/12/05 01:30:00;;;;;;;13.50;6.88;;;2.40;99.90;;;;;;5095713;28;20123;-67
2020/12/05 01:32:28;;;;;;;12.82;6.70;;;2.40;99.90;;;;;;5095751;28;20024;-67
2020/12/05 01:34:56;;;;;;;14.27;7.20;;;2.40;99.90;;;;;;5097293;28;20020;-67
2020/12/05 01:37:23;;;;;;;12.70;6.43;;;2.40;99.90;;;;;;5096772;28;20017;-68
2020/12/05 01:39:52;;;;;;;14.13;6.65;;;2.40;99.90;;;;;;5095649;28;20131;-67
2020/12/05 01:42:20;;;;;;;12.77;6.93;;;2.40;99.90;;;;;;5096678;28;20028;-67
2020/12/05 01:44:47;;;;;;;13.63;6.85;;;2.50;99.90;;;;;;5096722;28;20046;-67
2020/12/05 01:47:15;;;;;;;13.30;6.35;;;2.40;99.90;;;;;;5096695;28;20124;-67
2020/12/05 01:49:44;;;;;;;12.52;6.57;;;2.40;99.90;;;;;;5096868;28;20020;-67
2020/12/05 01:52:12;;;;;;;13.93;6.50;;;2.40;99.90;;;;;;5095710;28;20391;-67
2020/12/05 01:54:40;;;;;;;14.23;7.13;;;2.40;99.90;;;;;;5096542;28;20021;-67
2020/12/05 01:57:07;;;;;;;14.70;6.97;;;2.40;99.90;;;;;;5096533;28;20428;-68
2020/12/05 01:59:35;;;;;;;17.02;7.63;;;2.40;99.90;;;;;;5095505;28;20032;-67
2020/12/05 02:02:06;;;;;;;14.88;6.85;;;2.40;99.90;;;;;;5097033;28;20387;-67
2020/12/05 02:05:03;;;;;;;11.68;6.43;;;2.40;99.90;;;;;;5096928;28;20048;-67
2020/12/05 02:07:50;;;;;;;14.75;6.40;;;2.40;99.90;;;;;;5088684;28;20044;-67
2020/12/05 02:10:27;;;;;;;13.30;6.38;;;2.40;99.90;;;;;;5095317;28;20278;-67
2020/12/05 02:13:10;;;;;;;15.95;7.00;;;2.40;99.90;;;;;;5096435;28;20024;-67
2020/12/05 02:15:39;;;;;;;14.73;7.20;;;2.40;99.90;;;;;;5096410;28;20481;-67
2020/12/05 02:18:08;;;;;;;17.45;7.15;;;2.40;99.90;;;;;;5095274;28;20110;-67
2020/12/05 02:20:38;;;;;;;12.85;6.32;;;2.40;99.90;;;;;;5095172;28;20031;-67
2020/12/05 02:23:14;;;;;;;14.13;7.00;;;2.40;99.90;;;;;;5096318;28;20027;-67
2020/12/05 02:25:56;;;;;;;14.65;7.30;;;2.40;99.90;;;;;;5095260;28;20107;-68
2020/12/05 02:28:24;;;;;;;15.27;7.32;;;2.50;99.90;;;;;;5095101;28;20062;-67
2020/12/05 02:30:51;;;;;;;13.52;6.15;;;2.50;99.90;;;;;;5098195;28;20029;-67
2020/12/05 02:33:22;;;;;;;12.75;5.78;;;2.50;99.90;;;;;;5100391;28;20020;-67
2020/12/05 02:35:49;;;;;;;12.05;6.70;;;2.50;99.90;;;;;;5100442;28;20024;-67
2020/12/05 02:38:22;;;;;;;14.18;6.30;;;2.50;99.90;;;;;;5100769;28;20299;-67
2020/12/05 02:40:51;;;;;;;13.60;6.72;;;2.50;99.90;;;;;;5100533;28;20028;-67
2020/12/05 02:43:19;;;;;;;15.93;7.40;;;2.50;99.90;;;;;;5099950;28;20035;-67
2020/12/05 02:45:47;;;;;;;14.02;6.78;;;2.50;99.90;;;;;;5100176;28;20050;-67
2020/12/05 02:48:16;;;;;;;13.00;6.40;;;2.50;99.90;;;;;;5099730;28;20012;-67
2020/12/05 02:50:43;;;;;;;12.55;6.82;;;2.40;99.90;;;;;;5098636;28;20027;-67
2020/12/05 02:53:11;;;;;;;12.95;6.22;;;2.50;99.90;;;;;;5100289;28;20016;-68
2020/12/05 02:55:39;;;;;;;12.25;6.72;;;2.40;99.90;;;;;;5098664;28;20028;-68
2020/12/05 02:58:06;;;;;;;13.27;6.15;;;2.50;99.90;;;;;;5100156;28;20404;-68
2020/12/05 03:00:34;;;;;;;16.45;7.20;;;2.50;99.90;;;;;;5099591;28;20111;-68
2020/12/05 03:03:02;;;;;;;11.48;6.53;;;2.50;99.90;;;;;;5098467;28;20026;-67
2020/12/05 03:05:30;;;;;;;13.75;6.38;;;2.50;99.90;;;;;;5100013;28;20022;-67
2020/12/05 03:08:00;;;;;;;13.07;6.28;;;2.50;99.90;;;;;;5083930;28;20344;-68
2020/12/05 03:10:28;;;;;;;13.55;6.68;;;2.50;99.90;;;;;;5079691;28;20428;-67
2020/12/05 03:12:55;;;;;;;11.60;6.07;;;2.50;99.90;;;;;;5079122;28;20093;-67
2020/12/05 03:15:23;;;;;;;15.05;6.63;;;2.50;99.90;;;;;;5079027;28;20024;-67
2020/12/05 03:17:51;;;;;;;12.95;6.32;;;2.50;99.90;;;;;;5079545;28;20027;-67
2020/12/05 03:20:19;;;;;;;11.07;5.97;;;2.60;99.90;;;;;;5078911;28;20098;-67
2020/12/05 03:22:47;;;;;;;14.52;7.18;;;2.60;99.90;;;;;;5078939;28;20025;-68
2020/12/05 03:25:15;;;;;;;13.15;6.40;;;2.60;99.90;;;;;;5079607;28;20024;-67
2020/12/05 03:27:43;;;;;;;12.63;6.35;;;2.70;99.90;;;;;;5078823;28;20027;-67
2020/12/05 03:30:10;;;;;;;13.40;7.45;;;2.60;99.90;;;;;;5079211;28;20405;-67
2020/12/05 03:32:39;;;;;;;12.13;7.10;;;2.70;99.90;;;;;;5061000;28;20021;-67
2020/12/05 03:35:07;;;;;;;12.45;7.03;;;2.70;99.90;;;;;;5060876;28;20111;-67
2020/12/05 03:37:36;;;;;;;11.57;6.43;;;2.70;99.90;;;;;;5078652;28;20024;-67
2020/12/05 03:40:06;;;;;;;12.13;6.78;;;2.70;99.90;;;;;;5079156;28;20345;-67
2020/12/05 03:42:38;;;;;;;14.32;7.45;;;2.70;99.90;;;;;;5079175;28;20021;-68
2020/12/05 03:45:06;;;;;;;17.40;8.55;;;2.70;99.90;;;;;;5079009;28;20052;-67
2020/12/05 03:47:34;;;;;;;17.08;7.65;;;2.80;99.90;;;;;;5078438;28;20056;-67
2020/12/05 03:50:04;;;;;;;12.35;7.28;;;2.80;99.90;;;;;;5078857;28;20111;-67
2020/12/05 03:52:32;;;;;;;18.30;8.73;;;2.80;99.90;;;;;;5078209;28;20098;-67
2020/12/05 03:55:00;;;;;;;15.38;7.30;;;2.80;99.90;;;;;;5078853;28;20012;-67
2020/12/05 03:57:28;;;;;;;16.33;7.75;;;2.70;99.90;;;;;;5078265;28;20133;-67
2020/12/05 03:59:56;;;;;;;17.90;7.80;;;2.70;99.90;;;;;;5078240;28;20377;-67
2020/12/05 04:02:23;;;;;;;14.95;7.68;;;2.70;99.90;;;;;;5078095;28;20016;-67
2020/12/05 04:04:51;;;;;;;17.15;9.20;;;2.60;99.90;;;;;;5078676;28;20016;-67
2020/12/05 04:07:18;;;;;;;18.15;8.27;;;2.50;99.90;;;;;;5078166;28;20048;-68
2020/12/05 04:09:46;;;;;;;15.93;8.32;;;2.40;99.90;;;;;;5077970;28;20099;-68
2020/12/05 04:12:14;;;;;;;17.10;8.13;;;2.40;99.90;;;;;;5078495;28;20511;-67
2020/12/05 04:14:41;;;;;;;14.77;7.70;;;2.30;99.90;;;;;;5078432;28;20028;-67
2020/12/05 04:17:10;;;;;;;18.67;8.55;;;2.30;99.90;;;;;;5077825;28;20025;-67
2020/12/05 04:19:39;;;;;;;15.73;8.60;;;2.20;99.90;;;;;;5078350;28;20021;-67
2020/12/05 04:22:06;;;;;;;21.88;9.25;;;2.20;99.90;;;;;;5077683;28;20020;-67
2020/12/05 04:24:34;;;;;;;21.92;8.40;;;2.20;99.90;;;;;;5060251;28;20324;-67
2020/12/05 04:27:02;;;;;;;17.92;8.98;;;2.20;99.90;;;;;;5077660;28;20071;-67
2020/12/05 04:29:30;;;;;;;16.17;8.60;;;2.10;99.90;;;;;;5059995;28;20386;-67
2020/12/05 04:31:58;;;;;;;20.70;9.52;;;2.10;99.90;;;;;;5078145;28;20464;-67
2020/12/05 04:34:25;;;;;;;20.58;9.30;;;2.10;99.90;;;;;;5077528;28;20020;-67
2020/12/05 04:36:53;;;;;;;17.08;8.25;;;2.00;99.90;;;;;;5077376;28;20017;-68
2020/12/05 04:39:20;;;;;;;18.48;8.27;;;2.00;99.90;;;;;;5078093;28;20027;-68
2020/12/05 04:41:48;;;;;;;17.17;9.30;;;2.00;99.90;;;;;;5077384;28;20033;-67
2020/12/05 04:44:16;;;;;;;18.38;8.77;;;2.00;99.90;;;;;;5077785;28;20397;-68
2020/12/05 04:46:45;;;;;;;19.55;8.73;;;2.00;99.90;;;;;;5077246;28;20388;-67
2020/12/05 04:49:13;;;;;;;18.38;8.98;;;2.00;99.90;;;;;;5059329;28;20301;-67
2020/12/05 04:51:47;;;;;;;19.80;9.00;;;1.90;99.90;;;;;;5077511;28;20059;-68
2020/12/05 04:54:27;;;;;;;21.40;8.57;;;1.90;99.90;;;;;;5076941;28;20028;-68
2020/12/05 04:56:56;;;;;;;19.17;8.75;;;1.90;99.90;;;;;;5077136;28;20103;-67
2020/12/05 04:59:23;;;;;;;18.35;8.80;;;1.90;99.90;;;;;;5077817;28;20029;-68
2020/12/05 05:01:53;;;;;;;17.73;8.05;;;1.90;99.90;;;;;;5077513;28;20023;-67
2020/12/05 05:04:25;;;;;;;19.27;9.40;;;1.90;99.90;;;;;;5077639;28;20024;-67
2020/12/05 05:07:03;;;;;;;18.35;9.25;;;2.00;99.90;;;;;;5078873;28;20052;-67
2020/12/05 05:09:31;;;;;;;18.02;8.13;;;1.90;99.90;;;;;;5076849;28;20020;-68
2020/12/05 05:12:00;;;;;;;18.08;8.73;;;1.90;99.90;;;;;;5077354;28;20073;-67
2020/12/05 05:14:35;;;;;;;24.23;9.82;;;1.90;99.90;;;;;;5059223;28;20115;-68
2020/12/05 05:17:07;;;;;;;18.67;9.27;;;1.90;99.90;;;;;;5076775;28;20032;-68
2020/12/05 05:19:38;;;;;;;24.35;10.23;;;1.80;99.90;;;;;;5076762;28;20035;-67
2020/12/05 05:22:06;;;;;;;27.60;11.05;;;1.80;99.90;;;;;;5076942;28;20097;-68
2020/12/05 05:24:34;;;;;;;50.03;21.15;;;1.90;99.90;;;;;;5076897;28;20028;-67
2020/12/05 05:27:08;;;;;;;28.15;13.90;;;1.80;99.90;;;;;;5076685;28;20158;-67
2020/12/05 05:29:43;;;;;;;37.67;14.90;;;1.80;99.90;;;;;;5076626;28;20098;-67
2020/12/05 05:32:26;;;;;;;24.58;12.13;;;1.80;99.90;;;;;;5076566;28;20316;-68
2020/12/05 05:35:12;;;;;;;25.48;11.05;;;1.80;99.90;;;;;;5077062;28;20020;-67
2020/12/05 05:37:42;;;;;;;22.70;11.20;;;1.80;99.90;;;;;;5076493;28;20020;-67
2020/12/05 05:40:13;;;;;;;22.38;10.82;;;1.80;99.90;;;;;;5077345;28;20392;-68
2020/12/05 05:42:42;;;;;;;26.33;10.48;;;1.70;99.90;;;;;;5076770;28;20028;-68
2020/12/05 05:45:25;;;;;;;25.70;13.13;;;1.70;99.90;;;;;;5076631;28;20028;-67
2020/12/05 05:48:03;;;;;;;24.27;12.10;;;1.60;99.90;;;;;;5076461;28;20028;-67
2020/12/05 05:50:33;;;;;;;28.52;11.13;;;1.60;99.90;;;;;;5076887;28;20027;-67
2020/12/05 05:53:03;;;;;;;30.38;13.20;;;1.50;99.90;;;;;;5076424;28;20024;-67
2020/12/05 05:55:50;;;;;;;28.48;12.88;;;1.50;99.90;;;;;;5076720;28;20104;-68
2020/12/05 05:58:21;;;;;;;21.25;9.82;;;1.40;99.90;;;;;;5058542;28;20036;-67
2020/12/05 06:00:50;;;;;;;25.50;11.40;;;1.30;99.90;;;;;;5076347;28;20332;-67
2020/12/05 06:03:22;;;;;;;27.60;13.13;;;1.40;99.90;;;;;;5076344;28;20138;-67
2020/12/05 06:05:52;;;;;;;27.83;13.23;;;1.30;99.90;;;;;;5061459;28;20478;-67
2020/12/05 06:08:24;;;;;;;23.73;10.48;;;1.30;99.90;;;;;;5080162;28;20072;-67
2020/12/05 06:10:59;;;;;;;22.05;10.57;;;1.30;99.90;;;;;;5080314;28;20016;-68
2020/12/05 06:13:29;;;;;;;23.13;11.20;;;1.30;99.90;;;;;;5080217;28;20024;-68
2020/12/05 06:15:59;;;;;;;25.88;11.35;;;1.30;99.90;;;;;;5080493;28;20107;-68
2020/12/05 06:18:27;;;;;;;26.17;11.25;;;1.30;99.90;;;;;;5080314;28;20094;-67
2020/12/05 06:20:55;;;;;;;23.92;10.30;;;1.30;99.90;;;;;;5080048;28;20024;-67
2020/12/05 06:23:32;;;;;;;21.60;9.90;;;1.30;99.90;;;;;;5062274;28;20032;-67
2020/12/05 06:26:02;;;;;;;23.23;9.80;;;1.30;99.90;;;;;;5080551;28;20103;-67
2020/12/05 06:28:30;;;;;;;26.27;10.50;;;1.30;99.90;;;;;;5062180;28;20025;-68
2020/12/05 06:30:59;;;;;;;24.00;10.75;;;1.30;99.90;;;;;;5079905;28;20028;-68
2020/12/05 06:33:40;;;;;;;23.33;10.35;;;1.40;99.90;;;;;;5079840;28;20067;-67
2020/12/05 06:36:29;;;;;;;17.70;9.10;;;1.30;99.90;;;;;;5080293;28;20024;-67
2020/12/05 06:39:16;;;;;;;22.45;10.90;;;1.30;99.90;;;;;;5062145;28;20025;-67
2020/12/05 06:41:50;;;;;;;21.50;9.73;;;1.40;99.90;;;;;;5080257;28;20074;-67
2020/12/05 06:44:24;;;;;;;21.33;10.10;;;1.40;99.90;;;;;;5079668;28;20024;-67
2020/12/05 06:46:54;;;;;;;19.77;9.80;;;1.40;99.90;;;;;;5079550;28;20117;-67
2020/12/05 06:49:39;;;;;;;21.98;10.10;;;1.40;99.90;;;;;;5079550;28;20021;-69
2020/12/05 06:52:25;;;;;;;28.03;10.80;;;1.40;99.90;;;;;;5079648;28;20024;-68
2020/12/05 06:55:13;;;;;;;20.63;9.45;;;1.50;99.90;;;;;;5079981;28;20027;-68
2020/12/05 06:57:42;;;;;;;20.88;10.18;;;1.50;99.90;;;;;;5079932;28;20017;-69
2020/12/05 07:00:26;;;;;;;19.35;9.45;;;1.50;99.90;;;;;;5079314;28;20470;-69
2020/12/05 07:03:02;;;;;;;20.75;10.25;;;1.50;99.90;;;;;;5079063;28;20330;-68
2020/12/05 07:05:43;;;;;;;21.38;10.32;;;1.50;99.90;;;;;;5079328;28;20481;-68
2020/12/05 07:08:31;;;;;;;19.40;9.88;;;1.60;99.90;;;;;;5079248;28;20115;-68
2020/12/05 07:11:03;;;;;;;21.95;9.82;;;1.60;99.90;;;;;;5079010;28;20052;-68
2020/12/05 07:13:42;;;;;;;17.58;9.00;;;1.60;99.90;;;;;;5079006;28;20035;-69
2020/12/05 07:16:24;;;;;;;18.90;9.63;;;1.60;99.90;;;;;;5078705;28;20301;-70
2020/12/05 07:18:54;;;;;;;23.77;11.25;;;1.70;99.90;;;;;;5079582;28;20060;-68
2020/12/05 07:21:22;;;;;;;28.92;13.80;;;1.70;99.90;;;;;;5078825;28;20058;-70
2020/12/05 07:23:50;;;;;;;22.73;10.32;;;1.70;99.90;;;;;;5078942;28;20047;-71
2020/12/05 07:26:18;;;;;;;19.52;10.38;;;1.80;99.90;;;;;;5061168;28;20133;-70
2020/12/05 07:28:51;;;;;;;20.23;10.80;;;1.80;99.90;;;;;;5078961;28;20025;-71
2020/12/05 07:31:19;;;;;;;22.23;10.52;;;1.80;99.90;;;;;;5079083;28;20048;-71
2020/12/05 07:33:47;;;;;;;20.05;9.18;;;1.80;99.90;;;;;;5061163;28;20024;-70
2020/12/05 07:36:17;;;;;;;19.20;10.10;;;1.90;99.90;;;;;;5061139;28;20424;-69
2020/12/05 07:38:46;;;;;;;16.35;9.02;;;1.90;99.90;;;;;;5078646;28;20036;-68
2020/12/05 07:41:16;;;;;;;17.45;7.95;;;1.90;99.90;;;;;;5078628;28;20021;-69
2020/12/05 07:43:44;;;;;;;17.05;8.98;;;1.90;99.90;;;;;;5078776;28;20025;-69
2020/12/05 07:46:14;;;;;;;37.78;15.75;;;1.90;99.90;;;;;;5078512;28;20094;-69
2020/12/05 07:48:43;;;;;;;22.70;10.82;;;1.90;99.90;;;;;;5078998;28;20025;-65
2020/12/05 07:51:18;;;;;;;15.95;8.43;;;2.00;99.90;;;;;;5078346;28;20021;-66
2020/12/05 07:53:49;;;;;;;20.92;10.68;;;2.00;99.90;;;;;;5078506;28;20546;-67
2020/12/05 07:56:21;;;;;;;16.50;8.63;;;2.00;99.90;;;;;;5078435;28;20436;-65
2020/12/05 07:58:54;;;;;;;21.17;8.82;;;2.00;99.90;;;;;;5060490;28;20035;-65
2020/12/05 08:01:46;;;;;;;16.35;8.75;;;2.00;99.90;;;;;;5060243;28;20044;-66
2020/12/05 08:04:28;;;;;;;15.57;8.23;;;2.00;99.90;;;;;;5078679;28;20365;-73
2020/12/05 08:07:09;;;;;;;12.73;7.38;;;2.10;99.90;;;;;;5081766;28;20428;-66
2020/12/05 08:09:39;;;;;;;19.85;9.18;;;2.20;99.90;;;;;;5097377;28;20032;-66
2020/12/05 08:12:18;;;;;;;20.58;8.60;;;2.20;99.90;;;;;;5098246;28;20027;-66
2020/12/05 08:14:46;;;;;;;27.05;11.45;;;2.30;99.90;;;;;;5098244;28;20016;-66
2020/12/05 08:17:15;;;;;;;16.13;8.07;;;2.30;99.90;;;;;;5098730;28;20023;-66
2020/12/05 08:19:43;;;;;;;14.10;6.90;;;2.40;99.90;;;;;;5098866;28;20413;-66
2020/12/05 08:22:11;;;;;;;15.45;8.02;;;2.40;99.90;;;;;;5098052;28;20016;-66
2020/12/05 08:24:55;;;;;;;17.02;7.88;;;2.50;99.90;;;;;;5096990;28;20057;-66
2020/12/05 08:27:23;;;;;;;15.63;8.65;;;2.50;99.90;;;;;;5097234;28;20433;-66
2020/12/05 08:29:51;;;;;;;15.50;7.90;;;2.60;99.90;;;;;;5098141;28;20073;-66
2020/12/05 08:32:23;;;;;;;15.35;7.32;;;2.70;99.90;;;;;;5098378;28;20099;-66
2020/12/05 08:34:51;;;;;;;15.13;7.90;;;2.70;99.90;;;;;;5098307;28;20165;-66
2020/12/05 08:37:27;;;;;;;27.00;12.95;;;2.80;99.90;;;;;;5096615;28;20047;-66
2020/12/05 08:39:55;;;;;;;19.00;9.82;;;2.90;99.90;;;;;;5097773;28;20550;-66
2020/12/05 08:42:23;;;;;;;11.38;6.93;;;2.90;99.90;;;;;;5097628;28;20031;-66
2020/12/05 08:44:51;;;;;;;14.57;7.45;;;3.00;99.90;;;;;;5097693;28;20024;-66
2020/12/05 08:47:19;;;;;;;11.20;5.95;;;3.10;99.90;;;;;;5097831;28;20320;-66
2020/12/05 08:49:48;;;;;;;10.45;6.32;;;3.10;99.90;;;;;;5097994;28;20107;-66
2020/12/05 08:52:17;;;;;;;9.85;5.70;;;3.30;99.90;;;;;;5097533;28;20463;-66
2020/12/05 08:54:52;;;;;;;19.08;8.80;;;3.40;99.90;;;;;;5096549;28;20027;-66
2020/12/05 08:57:21;;;;;;;11.35;5.90;;;3.50;99.90;;;;;;5097430;28;20043;-66
2020/12/05 09:00:00;;;;;;;11.60;5.32;;;3.60;99.90;;;;;;5097939;28;20055;-66
2020/12/05 09:02:37;;;;;;;11.68;5.75;;;3.70;99.90;;;;;;5098086;28;20038;-66
2020/12/05 09:05:05;;;;;;;11.48;6.00;;;3.70;99.90;;;;;;5097844;28;20400;-66
2020/12/05 09:07:33;;;;;;;9.80;5.88;;;3.80;99.90;;;;;;5087751;28;20052;-66
2020/12/05 09:10:14;;;;;;;12.43;5.22;;;3.80;99.90;;;;;;5076849;28;20029;-66
2020/12/05 09:12:42;;;;;;;15.40;7.72;;;3.80;99.90;;;;;;5077060;28;20021;-66
2020/12/05 09:15:10;;;;;;;14.13;6.65;;;3.90;99.90;;;;;;5077403;28;20048;-66
2020/12/05 09:17:39;;;;;;;14.88;7.20;;;4.10;99.90;;;;;;5077688;28;20017;-66
2020/12/05 09:20:20;;;;;;;13.30;6.60;;;4.10;99.90;;;;;;5076757;28;20032;-66
2020/12/05 09:22:56;;;;;;;16.48;7.68;;;4.20;99.90;;;;;;5076816;28;20020;-66
2020/12/05 09:25:31;;;;;;;13.52;7.25;;;4.30;99.90;;;;;;5076723;28;20455;-66
2020/12/05 09:28:00;;;;;;;12.17;6.93;;;4.30;99.90;;;;;;5076750;28;20028;-66
2020/12/05 09:30:31;;;;;;;14.38;6.88;;;4.40;99.90;;;;;;5076578;28;20326;-66
2020/12/05 09:32:59;;;;;;;13.45;5.90;;;4.40;99.90;;;;;;5076758;28;20070;-66
2020/12/05 09:35:28;;;;;;;11.98;6.03;;;4.40;99.90;;;;;;5076460;28;20078;-66
2020/12/05 09:37:58;;;;;;;13.52;6.32;;;4.40;99.90;;;;;;5077133;28;20016;-66
2020/12/05 09:40:27;;;;;;;14.27;6.90;;;4.50;99.90;;;;;;5076764;28;20020;-65
2020/12/05 09:42:55;;;;;;;11.52;5.88;;;4.50;99.90;;;;;;5076348;28;20425;-66
2020/12/05 09:45:22;;;;;;;14.63;6.50;;;4.50;99.90;;;;;;5076476;28;20048;-66
2020/12/05 09:47:50;;;;;;;16.25;6.13;;;4.50;99.90;;;;;;5076514;28;20024;-69
2020/12/05 09:50:18;;;;;;;11.95;6.32;;;4.50;99.90;;;;;;5058716;28;20368;-67
2020/12/05 09:52:45;;;;;;;24.70;7.57;;;4.40;99.90;;;;;;5058762;28;20052;-67
2020/12/05 09:55:13;;;;;;;19.73;7.45;;;4.30;99.90;;;;;;5076398;28;20020;-67
2020/12/05 09:57:41;;;;;;;16.02;7.63;;;4.20;99.90;;;;;;5076371;28;20302;-67
2020/12/05 10:00:12;;;;;;;16.42;7.88;;;4.20;99.90;;;;;;5058718;28;20332;-67
2020/12/05 10:02:41;;;;;;;13.88;7.07;;;4.20;99.90;;;;;;5076459;28;20024;-67
2020/12/05 10:05:10;;;;;;;17.13;8.38;;;4.10;99.90;;;;;;5059099;28;20083;-67
2020/12/05 10:07:39;;;;;;;18.98;9.45;;;4.00;99.90;;;;;;5076374;28;20084;-67
2020/12/05 10:10:08;;;;;;;13.38;7.78;;;3.90;99.90;;;;;;5076077;28;20028;-67
2020/12/05 10:12:36;;;;;;;14.75;7.95;;;3.80;99.90;;;;;;5076795;28;20051;-67
2020/12/05 10:15:06;;;;;;;14.43;7.55;;;3.70;99.90;;;;;;5076726;28;20051;-67
2020/12/05 10:17:35;;;;;;;12.70;7.03;;;3.60;99.90;;;;;;5076616;28;20052;-67
2020/12/05 10:20:03;;;;;;;14.77;7.30;;;3.50;99.90;;;;;;5076601;28;20082;-67
2020/12/05 10:22:31;;;;;;;12.85;7.55;;;3.40;99.90;;;;;;5076664;28;20035;-67
2020/12/05 10:24:59;;;;;;;11.73;6.47;;;3.40;99.90;;;;;;5076385;28;20028;-66
2020/12/05 10:27:28;;;;;;;12.90;7.25;;;3.40;99.90;;;;;;5076153;28;20021;-68
2020/12/05 10:29:56;;;;;;;13.10;6.60;;;3.40;99.90;;;;;;5075896;28;20332;-66
2020/12/05 10:32:27;;;;;;;11.57;6.40;;;3.40;99.90;;;;;;5076397;28;20017;-67
2020/12/05 10:34:55;;;;;;;11.48;6.85;;;3.40;99.90;;;;;;5075982;28;20021;-67
2020/12/05 10:37:22;;;;;;;13.05;6.85;;;3.40;99.90;;;;;;5075976;28;20025;-67
2020/12/05 10:39:50;;;;;;;14.60;7.75;;;3.40;99.90;;;;;;5076208;28;20020;-67
2020/12/05 10:42:18;;;;;;;13.20;7.50;;;3.50;99.90;;;;;;5058099;28;20032;-67
2020/12/05 10:44:47;;;;;;;10.63;5.70;;;3.60;99.90;;;;;;5076509;28;20052;-67
2020/12/05 10:47:15;;;;;;;13.82;6.97;;;3.60;99.90;;;;;;5076885;28;20362;-66
2020/12/05 10:49:43;;;;;;;12.77;7.72;;;3.60;99.90;;;;;;5096642;28;20032;-67
2020/12/05 10:52:11;;;;;;;13.80;7.53;;;3.60;99.90;;;;;;5099284;28;20046;-67
2020/12/05 10:54:38;;;;;;;13.63;6.72;;;3.70;99.90;;;;;;5099752;28;20408;-68
2020/12/05 10:57:06;;;;;;;14.55;7.28;;;3.80;99.90;;;;;;5100253;28;20273;-68
2020/12/05 10:59:35;;;;;;;13.45;6.97;;;3.80;99.90;;;;;;5100411;28;20077;-67
2020/12/05 11:02:03;;;;;;;11.13;6.50;;;3.80;99.90;;;;;;5099407;28;20304;-66
2020/12/05 11:04:31;;;;;;;10.57;5.75;;;3.90;99.90;;;;;;5100168;28;20027;-68
2020/12/05 11:06:59;;;;;;;12.25;6.80;;;3.90;99.90;;;;;;5103643;28;20118;-68
2020/12/05 11:09:26;;;;;;;12.05;6.85;;;3.80;99.90;;;;;;5120035;28;20161;-66
2020/12/05 11:11:54;;;;;;;14.55;6.20;;;3.90;99.90;;;;;;5101802;28;20023;-68
2020/12/05 11:14:22;;;;;;;10.00;6.18;;;3.90;99.90;;;;;;5120426;28;20016;-67
2020/12/05 11:16:50;;;;;;;11.95;6.43;;;4.00;99.90;;;;;;5119751;28;20104;-69
2020/12/05 11:19:18;;;;;;;12.57;7.25;;;4.00;99.90;;;;;;5101788;28;20430;-67
2020/12/05 11:21:46;;;;;;;13.02;7.47;;;4.10;99.90;;;;;;5120163;28;20023;-68
2020/12/05 11:24:14;;;;;;;8.57;5.00;;;4.20;99.90;;;;;;5119917;28;20028;-67
2020/12/05 11:26:42;;;;;;;9.32;5.68;;;4.30;99.90;;;;;;5101493;28;20031;-68
2020/12/05 11:29:10;;;;;;;8.43;5.40;;;4.30;99.90;;;;;;5120143;28;20019;-67
2020/12/05 11:31:37;;;;;;;13.55;7.20;;;4.30;99.90;;;;;;5120061;28;20016;-67
2020/12/05 11:34:05;;;;;;;12.13;6.60;;;4.40;99.90;;;;;;5119463;28;20027;-67
2020/12/05 11:36:33;;;;;;;14.82;7.28;;;4.40;99.90;;;;;;5119321;28;20016;-67
2020/12/05 11:39:01;;;;;;;19.58;7.90;;;4.40;99.90;;;;;;5120069;28;20055;-67
2020/12/05 11:41:29;;;;;;;20.75;7.43;;;4.40;99.90;;;;;;5119232;28;20019;-67
2020/12/05 11:43:57;;;;;;;16.65;8.20;;;4.50;99.90;;;;;;5119284;28;20026;-67
2020/12/05 11:46:27;;;;;;;14.57;7.60;;;4.60;99.90;;;;;;5119447;28;20073;-67
2020/12/05 11:48:55;;;;;;;21.88;8.82;;;4.60;99.90;;;;;;5119784;28;20027;-67
2020/12/05 11:51:26;;;;;;;13.20;7.18;;;4.60;99.90;;;;;;5118993;28;20016;-67
2020/12/05 11:53:54;;;;;;;9.32;5.28;;;4.60;99.90;;;;;;5100999;28;20036;-66
2020/12/05 11:56:25;;;;;;;8.45;5.40;;;4.50;99.90;;;;;;5119791;28;20380;-66
2020/12/05 11:58:53;;;;;;;8.82;5.57;;;4.60;99.90;;;;;;5119681;28;20028;-66
2020/12/05 12:01:21;;;;;;;9.40;5.03;;;4.60;99.90;;;;;;5118497;28;20031;-69
2020/12/05 12:03:48;;;;;;;10.35;5.18;;;4.60;99.90;;;;;;5099936;28;20038;-68
2020/12/05 12:06:19;;;;;;;13.50;6.82;;;4.60;99.90;;;;;;5119232;28;20028;-69
2020/12/05 12:08:49;;;;;;;11.80;5.75;;;4.60;99.90;;;;;;5118408;28;20046;-68
2020/12/05 12:11:20;;;;;;;13.52;7.20;;;4.60;99.90;;;;;;5118671;28;20043;-68
2020/12/05 12:13:49;;;;;;;9.70;5.85;;;4.60;99.90;;;;;;5119194;28;20070;-68
2020/12/05 12:16:17;;;;;;;8.60;5.72;;;4.60;99.90;;;;;;5118923;28;20051;-68
2020/12/05 12:18:45;;;;;;;10.43;6.07;;;4.60;99.90;;;;;;5118673;28;20020;-68
2020/12/05 12:21:14;;;;;;;9.45;5.75;;;4.60;99.90;;;;;;5118470;28;20027;-68
2020/12/05 12:23:41;;;;;;;10.50;5.75;;;4.60;99.90;;;;;;5118469;28;20019;-68
2020/12/05 12:26:10;;;;;;;10.15;6.07;;;4.60;99.90;;;;;;5118519;28;20034;-68
2020/12/05 12:28:39;;;;;;;11.30;7.05;;;4.60;99.90;;;;;;5118435;28;20098;-68
2020/12/05 12:31:06;;;;;;;11.85;6.50;;;4.60;99.90;;;;;;5118279;28;20054;-66
2020/12/05 12:33:34;;;;;;;10.55;6.43;;;4.60;99.90;;;;;;5100087;28;20016;-68
2020/12/05 12:36:02;;;;;;;9.70;5.80;;;4.60;99.90;;;;;;5100158;28;20306;-68
2020/12/05 12:38:30;;;;;;;10.02;5.68;;;4.60;99.90;;;;;;5118666;28;20434;-68
2020/12/05 12:40:57;;;;;;;15.43;7.03;;;4.60;99.90;;;;;;5118587;28;20047;-68
2020/12/05 12:43:25;;;;;;;10.73;5.30;;;4.60;99.90;;;;;;5117958;28;20019;-68
2020/12/05 12:45:53;;;;;;;10.43;6.07;;;4.60;99.90;;;;;;5117892;28;20098;-68
2020/12/05 12:50:52;;;;;;;12.18;6.18;;;4.60;99.90;;;;;;5117923;28;20031;-68
2020/12/05 12:53:20;;;;;;;11.80;6.65;;;4.50;99.90;;;;;;5118117;28;20154;-68
2020/12/05 12:55:49;;;;;;;10.80;6.50;;;4.50;99.90;;;;;;5117909;28;20434;-68
2020/12/05 13:01:17;;;;;;;11.73;6.35;;;4.40;99.90;;;;;;5099588;28;20070;-68
2020/12/05 13:03:46;;;;;;;11.80;6.97;;;4.50;99.90;;;;;;5117917;28;20110;-68
2020/12/05 13:06:17;;;;;;;12.30;6.20;;;4.50;99.90;;;;;;5117637;28;20327;-68